Time;durP1;ratioP1;P1;durP2;ratioP2;P2;SDS_P1;SDS_P2;PMS_P1;PMS_P2;Temp;Humidity;BMP_temperature;BMP_pressure;BME280_temperature;BME280_humidity;BME280_pressure;Samples;Min_cycle;Max_cycle;Signal;HPM_P1;HPM_P2
2024/03/01 00:02:07;;;;;;;10.77;4.93;;;;;;;7.90;100.00;100338.25;5093735;28;21031;-70
2024/03/01 00:04:33;;;;;;;14.40;5.37;;;;;;;7.96;100.00;100350.56;5093798;28;20443;-70
2024/03/01 00:07:00;;;;;;;15.37;5.67;;;;;;;7.97;100.00;100338.66;5094132;28;20935;-71
2024/03/01 00:09:26;;;;;;;8.00;4.80;;;;;;;8.04;100.00;100344.53;5093855;28;20471;-70
2024/03/01 00:11:53;;;;;;;12.47;5.10;;;;;;;8.07;100.00;100328.56;5093933;28;20870;-70
2024/03/01 00:14:20;;;;;;;22.97;5.77;;;;;;;8.07;100.00;100339.38;5093632;28;21000;-71
2024/03/01 00:16:48;;;;;;;13.17;5.43;;;;;;;8.09;100.00;100326.38;5093949;28;20440;-71
2024/03/01 00:19:14;;;;;;;10.63;4.93;;;;;;;8.11;100.00;100338.78;5093580;28;20837;-71
2024/03/01 00:21:41;;;;;;;13.90;4.90;;;;;;;8.09;100.00;100331.78;5093947;28;20515;-70
2024/03/01 00:24:08;;;;;;;10.77;5.10;;;;;;;8.07;100.00;100316.97;5093473;28;21031;-70
2024/03/01 00:26:34;;;;;;;10.77;5.03;;;;;;;8.06;100.00;100321.56;5093609;28;20942;-70
2024/03/01 00:29:01;;;;;;;12.83;5.23;;;;;;;8.03;100.00;100313.25;5093710;28;20440;-70
2024/03/01 00:31:29;;;;;;;13.10;5.50;;;;;;;8.02;100.00;100317.84;5093757;28;20515;-71
2024/03/01 00:33:57;;;;;;;12.20;4.80;;;;;;;7.96;100.00;100310.91;5093543;28;20464;-71
2024/03/01 00:36:24;;;;;;;14.97;4.67;;;;;;;7.92;100.00;100309.09;5093375;28;20472;-71
2024/03/01 00:38:50;;;;;;;10.80;4.60;;;;;;;7.83;100.00;100317.84;5093979;28;20462;-71
2024/03/01 00:41:17;;;;;;;16.37;6.43;;;;;;;7.81;100.00;100306.53;5093435;28;20532;-71
2024/03/01 00:43:44;;;;;;;8.20;4.10;;;;;;;7.77;100.00;100312.78;5093499;28;20790;-69
2024/03/01 00:46:10;;;;;;;9.20;4.37;;;;;;;7.73;100.00;100300.97;5093960;28;20428;-70
2024/03/01 00:48:37;;;;;;;10.80;6.00;;;;;;;7.70;100.00;100296.16;5093925;28;20531;-70
2024/03/01 00:51:05;;;;;;;11.53;4.23;;;;;;;7.66;100.00;100301.34;5093538;28;20440;-70
2024/03/01 00:53:32;;;;;;;9.57;5.00;;;;;;;7.60;100.00;100286.31;5093165;28;20539;-70
2024/03/01 00:55:59;;;;;;;7.40;4.53;;;;;;;7.57;100.00;100287.69;5077121;22;20530;-70
2024/03/01 00:58:25;;;;;;;13.53;4.97;;;;;;;7.54;100.00;100292.84;5053567;28;20525;-70
2024/03/01 01:00:52;;;;;;;12.00;6.17;;;;;;;7.47;100.00;100281.59;5057624;28;20473;-70
2024/03/01 01:03:19;;;;;;;16.80;5.40;;;;;;;7.41;100.00;100282.78;5057111;28;20549;-70
2024/03/01 01:05:45;;;;;;;12.00;4.20;;;;;;;7.35;100.00;100268.56;5057529;28;20525;-70
2024/03/01 01:08:13;;;;;;;25.53;5.87;;;;;;;7.27;100.00;100274.56;5056874;28;20480;-72
2024/03/01 01:10:40;;;;;;;18.67;5.40;;;;;;;7.17;100.00;100269.28;5057139;28;20926;-71
2024/03/01 01:13:07;;;;;;;9.10;3.50;;;;;;;7.14;100.00;100272.56;5057367;28;20468;-71
2024/03/01 01:15:34;;;;;;;15.30;7.10;;;;;;;7.13;100.00;100270.94;5057542;28;20486;-70
2024/03/01 01:18:01;;;;;;;11.43;5.70;;;;;;;7.09;100.00;100259.94;5057305;28;20529;-69
2024/03/01 01:20:27;;;;;;;17.53;6.70;;;;;;;7.07;100.00;100254.84;5056659;28;20444;-69
2024/03/01 01:22:54;;;;;;;14.67;6.83;;;;;;;7.11;100.00;100252.38;5056540;28;20462;-69
2024/03/01 01:25:22;;;;;;;11.00;5.70;;;;;;;7.16;100.00;100246.94;5056925;28;20480;-70
2024/03/01 01:27:49;;;;;;;9.60;4.17;;;;;;;7.22;100.00;100240.41;5056506;28;20926;-70
2024/03/01 01:30:16;;;;;;;11.73;4.87;;;;;;;7.27;100.00;100234.16;5056727;28;20445;-70
2024/03/01 01:32:42;;;;;;;13.10;5.70;;;;;;;7.32;100.00;100234.91;5056923;28;20454;-69
2024/03/01 01:35:09;;;;;;;12.00;5.73;;;;;;;7.39;100.00;100228.34;5056616;28;20518;-70
2024/03/01 01:37:36;;;;;;;15.73;6.67;;;;;;;7.44;100.00;100220.22;5056752;28;20450;-70
2024/03/01 01:40:05;;;;;;;13.37;5.07;;;;;;;7.48;100.00;100218.53;5056988;28;20501;-70
2024/03/01 01:42:33;;;;;;;9.10;4.77;;;;;;;7.48;100.00;100229.31;5056204;28;20552;-70
2024/03/01 01:45:00;;;;;;;16.90;6.40;;;;;;;7.48;100.00;100219.34;5056454;28;20796;-69
2024/03/01 01:47:27;;;;;;;10.87;4.93;;;;;;;7.51;100.00;100224.16;5056355;28;20450;-70
2024/03/01 01:49:53;;;;;;;9.67;6.10;;;;;;;7.51;100.00;100218.75;5056382;28;20442;-69
2024/03/01 01:52:20;;;;;;;10.83;6.03;;;;;;;7.56;100.00;100217.91;5056382;28;20489;-69
2024/03/01 01:54:47;;;;;;;16.20;5.67;;;;;;;7.60;100.00;100218.91;5055751;28;21071;-69
2024/03/01 01:57:14;;;;;;;13.70;7.57;;;;;;;7.61;100.00;100219.72;5056013;28;20472;-69
2024/03/01 01:59:44;;;;;;;11.10;5.10;;;;;;;7.56;100.00;100217.91;5056280;28;20442;-69
2024/03/01 02:02:11;;;;;;;11.50;6.30;;;;;;;7.52;100.00;100219.56;5056048;28;20830;-69
2024/03/01 02:04:38;;;;;;;15.87;6.13;;;;;;;7.49;100.00;100215.56;5056187;28;20613;-70
2024/03/01 02:07:06;;;;;;;17.57;6.87;;;;;;;7.48;100.00;100215.84;5056182;28;20450;-70
2024/03/01 02:09:33;;;;;;;26.00;6.73;;;;;;;7.52;100.00;100214.16;5056159;28;20430;-69
2024/03/01 02:12:00;;;;;;;9.83;5.80;;;;;;;7.50;100.00;100210.97;5055981;28;20537;-69
2024/03/01 02:14:27;;;;;;;15.63;5.60;;;;;;;7.52;100.00;100198.81;5055542;28;20453;-70
2024/03/01 02:16:55;;;;;;;15.50;7.53;;;;;;;7.51;100.00;100202.59;5055557;28;20919;-69
2024/03/01 02:19:21;;;;;;;11.60;6.70;;;;;;;7.55;100.00;100208.22;5056238;28;20446;-69
2024/03/01 02:21:58;;;;;;;13.37;5.37;;;;;;;7.59;100.00;100198.47;5055723;28;20513;-69
2024/03/01 02:24:27;;;;;;;23.00;7.97;;;;;;;7.66;100.00;100198.91;5055521;28;20430;-69
2024/03/01 02:26:54;;;;;;;13.67;6.07;;;;;;;7.68;100.00;100196.72;5055421;28;20431;-69
2024/03/01 02:29:21;;;;;;;13.97;5.07;;;;;;;7.65;100.00;100193.78;5055676;28;20470;-69
2024/03/01 02:31:49;;;;;;;12.40;5.17;;;;;;;7.64;100.00;100192.19;5055788;28;20462;-69
2024/03/01 02:34:16;;;;;;;16.90;6.73;;;;;;;7.67;100.00;100188.94;5055584;28;20529;-70
2024/03/01 02:36:42;;;;;;;20.20;6.40;;;;;;;7.71;100.00;100192.66;5055806;28;20486;-69
2024/03/01 02:39:17;;;;;;;13.57;5.93;;;;;;;7.76;100.00;100182.59;5055623;28;21001;-69
2024/03/01 02:41:45;;;;;;;19.03;6.40;;;;;;;7.77;100.00;100189.56;5055479;28;20517;-69
2024/03/01 02:44:12;;;;;;;18.93;5.80;;;;;;;7.81;100.00;100184.41;5055802;28;20518;-70
2024/03/01 02:46:39;;;;;;;16.17;6.37;;;;;;;7.83;100.00;100183.03;5055392;28;20521;-70
2024/03/01 02:49:05;;;;;;;14.40;6.10;;;;;;;7.80;100.00;100178.22;5055016;28;20438;-70
2024/03/01 02:51:32;;;;;;;21.57;6.33;;;;;;;7.76;100.00;100169.09;5055331;28;20442;-70
2024/03/01 02:53:59;;;;;;;13.33;6.10;;;;;;;7.79;100.00;100176.63;5055525;28;20490;-70
2024/03/01 02:56:25;;;;;;;17.17;6.17;;;;;;;7.78;100.00;100175.00;5055069;28;20544;-70
2024/03/01 02:58:53;;;;;;;13.83;6.30;;;;;;;7.76;100.00;100171.78;5054765;28;20492;-70
2024/03/01 03:01:21;;;;;;;16.93;8.27;;;;;;;7.75;100.00;100169.41;5055114;28;20534;-70
2024/03/01 03:03:48;;;;;;;18.67;6.73;;;;;;;7.72;100.00;100160.00;5054554;28;20895;-70
2024/03/01 03:06:14;;;;;;;12.13;5.77;;;;;;;7.71;100.00;100165.69;5054623;28;20477;-69
2024/03/01 03:08:41;;;;;;;16.73;7.10;;;;;;;7.65;100.00;100162.25;5054937;28;20998;-69
2024/03/01 03:11:08;;;;;;;13.20;6.03;;;;;;;7.72;100.00;100156.50;5055289;28;20521;-69
2024/03/01 03:13:35;;;;;;;16.70;6.57;;;;;;;7.71;100.00;100155.69;5054818;28;20461;-70
2024/03/01 03:16:03;;;;;;;15.90;4.73;;;;;;;7.73;100.00;100155.41;5054730;28;20482;-69
2024/03/01 03:18:30;;;;;;;25.77;8.00;;;;;;;7.71;100.00;100166.47;5054469;28;20957;-69
2024/03/01 03:20:57;;;;;;;9.47;5.43;;;;;;;7.70;100.00;100162.19;5054582;28;20442;-69
2024/03/01 03:23:24;;;;;;;16.40;7.33;;;;;;;7.73;100.00;100156.19;5054499;28;20549;-69
2024/03/01 03:25:50;;;;;;;16.10;7.67;;;;;;;7.77;100.00;100159.13;5054986;28;20488;-69
2024/03/01 03:28:20;;;;;;;19.07;8.87;;;;;;;7.80;100.00;100159.34;5054562;28;20438;-69
2024/03/01 03:30:46;;;;;;;13.33;6.07;;;;;;;7.86;100.00;100156.56;5054790;28;20794;-69
2024/03/01 03:33:14;;;;;;;13.20;6.63;;;;;;;7.86;100.00;100156.56;5054433;28;20465;-69
2024/03/01 03:35:41;;;;;;;16.33;5.60;;;;;;;7.91;100.00;100154.56;5054693;28;20489;-69
2024/03/01 03:38:07;;;;;;;12.70;6.40;;;;;;;7.91;100.00;100156.47;5054727;28;20529;-69
2024/03/01 03:40:34;;;;;;;15.90;7.30;;;;;;;7.90;100.00;100154.88;5054607;28;20438;-69
2024/03/01 03:43:01;;;;;;;18.87;6.97;;;;;;;7.92;100.00;100156.16;5054512;28;20485;-69
2024/03/01 03:45:27;;;;;;;17.87;6.90;;;;;;;7.98;100.00;100156.91;5054808;28;20824;-69
2024/03/01 03:47:54;;;;;;;10.93;5.77;;;;;;;7.98;100.00;100156.91;5054035;28;20936;-69
2024/03/01 03:50:24;;;;;;;13.97;6.43;;;;;;;8.01;100.00;100151.75;5054199;28;20818;-69
2024/03/01 03:52:51;;;;;;;15.60;7.47;;;;;;;8.01;100.00;100148.22;5053507;28;20974;-69
2024/03/01 03:55:18;;;;;;;17.67;6.17;;;;;;;7.96;100.00;100146.41;5053520;28;20580;-69
2024/03/01 03:57:45;;;;;;;21.83;7.13;;;;;;;7.97;100.00;100145.31;5053928;28;20861;-69
2024/03/01 04:00:15;;;;;;;21.53;6.80;;;;;;;8.00;100.00;100142.03;5054054;28;20803;-69
2024/03/01 04:02:43;;;;;;;15.33;7.47;;;;;;;7.97;100.00;100139.94;5053846;28;20954;-70
2024/03/01 04:05:09;;;;;;;14.47;7.03;;;;;;;7.97;100.00;100139.09;5054032;28;20439;-70
2024/03/01 04:07:38;;;;;;;20.20;7.47;;;;;;;7.92;100.00;100136.50;5053819;28;20466;-70
2024/03/01 04:10:06;;;;;;;20.57;6.27;;;;;;;7.86;100.00;100132.28;5054080;28;20470;-70
2024/03/01 04:12:33;;;;;;;14.20;7.40;;;;;;;7.81;100.00;100133.97;5053539;28;20954;-69
2024/03/01 04:14:59;;;;;;;21.60;7.50;;;;;;;7.84;100.00;100130.69;5053934;28;20633;-70
2024/03/01 04:17:28;;;;;;;20.57;7.00;;;;;;;7.89;100.00;100131.72;5053461;28;20520;-69
2024/03/01 04:19:55;;;;;;;18.57;6.97;;;;;;;7.82;100.00;100130.19;5053759;28;20442;-69
2024/03/01 04:22:21;;;;;;;14.50;5.57;;;;;;;7.87;100.00;100128.50;5053639;28;20469;-69
2024/03/01 04:24:50;;;;;;;31.03;8.00;;;;;;;7.91;100.00;100133.00;5053478;28;20448;-70
2024/03/01 04:27:17;;;;;;;19.47;8.00;;;;;;;7.98;100.00;100146.13;5053442;28;20956;-69
2024/03/01 04:29:43;;;;;;;17.00;7.37;;;;;;;8.00;100.00;100135.84;5053549;28;20533;-69
2024/03/01 04:32:10;;;;;;;19.80;8.10;;;;;;;7.97;100.00;100139.09;5053099;28;20546;-69
2024/03/01 04:34:36;;;;;;;12.53;7.33;;;;;;;8.01;100.00;100135.56;5052331;28;20552;-69
2024/03/01 04:37:03;;;;;;;18.27;6.40;;;;;;;8.02;100.00;100139.06;5053041;28;20566;-69
2024/03/01 04:39:29;;;;;;;20.40;7.50;;;;;;;8.03;100.00;100144.13;5053591;28;20223;-69
2024/03/01 04:41:57;;;;;;;21.23;8.07;;;;;;;8.04;100.00;100145.72;5053302;28;20462;-69
2024/03/01 04:44:25;;;;;;;19.63;6.80;;;;;;;8.05;100.00;100150.03;5053412;28;20470;-70
2024/03/01 04:46:51;;;;;;;16.70;6.70;;;;;;;8.09;100.00;100150.25;5053344;28;20438;-70
2024/03/01 04:49:18;;;;;;;22.20;8.17;;;;;;;8.08;100.00;100151.34;5053009;28;21009;-71
2024/03/01 04:51:45;;;;;;;18.40;8.00;;;;;;;8.11;100.00;100145.38;5053100;28;20481;-70
2024/03/01 04:54:12;;;;;;;16.23;7.30;;;;;;;8.08;100.00;100148.66;5053239;28;20470;-70
2024/03/01 04:56:38;;;;;;;20.83;9.23;;;;;;;8.08;100.00;100154.84;5053259;28;20490;-70
2024/03/01 04:59:08;;;;;;;22.73;7.73;;;;;;;8.09;100.00;100153.75;5053557;28;20444;-70
2024/03/01 05:01:39;;;;;;;16.87;7.73;;;;;;;8.14;100.00;100155.56;5053223;28;20446;-70
2024/03/01 05:04:08;;;;;;;21.43;8.93;;;;;;;8.11;100.00;100155.38;5053332;28;20480;-70
2024/03/01 05:06:35;;;;;;;17.50;8.20;;;;;;;8.11;100.00;100156.16;5053082;28;20442;-70
2024/03/01 05:09:02;;;;;;;17.97;7.80;;;;;;;8.13;100.00;100150.47;5053178;28;20469;-71
2024/03/01 05:11:33;;;;;;;29.07;9.00;;;;;;;8.06;100.00;100158.94;5052765;28;20919;-71
2024/03/01 05:14:00;;;;;;;16.20;7.13;;;;;;;8.06;100.00;100157.03;5053188;28;20462;-71
2024/03/01 05:16:28;;;;;;;17.83;7.73;;;;;;;8.05;100.00;100151.94;5053286;28;20599;-70
2024/03/01 05:18:55;;;;;;;20.63;6.60;;;;;;;7.98;100.00;100146.94;5052362;28;20521;-70
2024/03/01 05:21:22;;;;;;;19.07;7.80;;;;;;;7.93;100.00;100147.00;5053124;28;20556;-70
2024/03/01 05:23:49;;;;;;;22.07;8.87;;;;;;;7.93;100.00;100149.72;5052896;28;21017;-70
2024/03/01 05:26:16;;;;;;;20.37;8.47;;;;;;;8.01;100.00;100156.31;5052981;28;20445;-70
2024/03/01 05:28:42;;;;;;;20.87;7.33;;;;;;;8.01;100.00;100157.13;5053450;28;20533;-70
2024/03/01 05:31:09;;;;;;;19.43;7.90;;;;;;;8.02;100.00;100153.34;5053222;28;20534;-70
2024/03/01 05:33:37;;;;;;;15.57;7.80;;;;;;;8.05;100.00;100146.53;5052381;28;20540;-70
2024/03/01 05:36:05;;;;;;;24.97;8.93;;;;;;;8.10;100.00;100141.03;5052717;28;20490;-70
2024/03/01 05:38:32;;;;;;;27.10;8.93;;;;;;;8.16;100.00;100141.78;5052289;28;20532;-70
2024/03/01 05:41:00;;;;;;;16.40;7.33;;;;;;;8.15;100.00;100146.38;5052511;28;20486;-70
2024/03/01 05:43:27;;;;;;;14.10;7.53;;;;;;;8.18;100.00;100145.78;5052746;28;20470;-70
2024/03/01 05:45:57;;;;;;;20.77;7.13;;;;;;;8.24;100.00;100141.13;5055300;28;20521;-70
2024/03/01 05:48:24;;;;;;;22.93;7.17;;;;;;;8.25;100.00;100148.91;5056750;28;20466;-70
2024/03/01 05:50:52;;;;;;;13.40;6.03;;;;;;;8.28;100.00;100148.31;5055760;28;20458;-70
2024/03/01 05:53:18;;;;;;;20.30;9.47;;;;;;;8.29;100.00;100143.72;5055990;28;20514;-70
2024/03/01 05:55:45;;;;;;;20.67;9.20;;;;;;;8.29;100.00;100141.81;5055473;28;20891;-70
2024/03/01 05:58:12;;;;;;;18.10;8.57;;;;;;;8.29;100.00;100141.81;5055841;28;20438;-70
2024/03/01 06:00:40;;;;;;;17.33;7.53;;;;;;;8.29;100.00;100147.22;5055872;28;20528;-69
2024/03/01 06:03:07;;;;;;;31.03;8.87;;;;;;;8.28;100.00;100151.00;5056130;28;20556;-70
2024/03/01 06:05:34;;;;;;;22.23;9.40;;;;;;;8.27;100.00;100144.00;5056280;28;20434;-69
2024/03/01 06:08:02;;;;;;;18.00;7.27;;;;;;;8.23;100.00;100156.47;5055428;28;20446;-69
2024/03/01 06:10:27;;;;;;;17.80;8.63;;;;;;;8.20;100.00;100156.28;5055328;28;21027;-69
2024/03/01 06:12:54;;;;;;;25.40;8.10;;;;;;;8.20;100.00;100154.38;5055572;28;20537;-70
2024/03/01 06:15:21;;;;;;;17.63;8.80;;;;;;;8.24;100.00;100157.31;5055678;28;20204;-70
2024/03/01 06:17:48;;;;;;;19.63;9.80;;;;;;;8.25;100.00;100173.19;5055815;28;20486;-69
2024/03/01 06:20:14;;;;;;;23.83;6.53;;;;;;;8.31;100.00;100168.50;5056222;28;20517;-72
2024/03/01 06:22:41;;;;;;;12.97;7.43;;;;;;;8.32;100.00;100170.91;5055702;28;20545;-69
2024/03/01 06:25:09;;;;;;;18.93;7.23;;;;;;;8.27;100.00;100173.69;5056185;28;21005;-68
2024/03/01 06:27:37;;;;;;;11.90;6.60;;;;;;;8.25;100.00;100183.97;5055715;28;20478;-68
2024/03/01 06:30:05;;;;;;;22.47;8.43;;;;;;;8.25;100.00;100178.59;5055625;28;20442;-69
2024/03/01 06:32:31;;;;;;;14.67;6.70;;;;;;;8.27;100.00;100176.38;5055651;28;20469;-69
2024/03/01 06:34:58;;;;;;;20.63;8.60;;;;;;;8.32;100.00;100183.59;5055802;28;20504;-69
2024/03/01 06:37:24;;;;;;;21.83;10.10;;;;;;;8.31;100.00;100182.00;5055788;28;20510;-69
2024/03/01 06:39:51;;;;;;;21.60;9.20;;;;;;;8.31;100.00;100182.78;5055777;28;20442;-69
2024/03/01 06:42:19;;;;;;;16.50;9.47;;;;;;;8.30;100.00;100183.88;5055001;28;20470;-69
2024/03/01 06:44:46;;;;;;;18.67;9.37;;;;;;;8.32;100.00;100179.00;5055350;28;20533;-69
2024/03/01 06:47:13;;;;;;;14.40;6.70;;;;;;;8.39;100.00;100175.16;5055017;28;20989;-69
2024/03/01 06:49:39;;;;;;;15.33;7.27;;;;;;;8.39;100.00;100184.03;5055329;28;20533;-69
2024/03/01 06:52:06;;;;;;;16.27;7.27;;;;;;;8.35;100.00;100189.19;5054831;28;20469;-69
2024/03/01 06:54:33;;;;;;;16.30;8.33;;;;;;;8.37;100.00;100188.13;5054665;28;20988;-69
2024/03/01 06:56:59;;;;;;;21.17;8.03;;;;;;;8.37;100.00;100186.25;5053965;28;20560;-69
2024/03/01 06:59:27;;;;;;;23.60;8.63;;;;;;;8.42;100.00;100183.47;5054735;28;20980;-69
2024/03/01 07:01:54;;;;;;;19.00;8.00;;;;;;;8.47;100.00;100185.28;5054922;28;20434;-69
2024/03/01 07:04:21;;;;;;;16.17;7.77;;;;;;;8.52;100.00;100174.38;5055220;28;20438;-70
2024/03/01 07:06:48;;;;;;;21.23;9.00;;;;;;;8.53;100.00;100178.66;5055352;28;20434;-71
2024/03/01 07:09:14;;;;;;;19.50;7.67;;;;;;;8.50;100.00;100168.47;5055020;28;20438;-71
2024/03/01 07:11:41;;;;;;;21.07;9.67;;;;;;;8.52;100.00;100158.19;5054820;28;20482;-71
2024/03/01 07:14:08;;;;;;;22.73;8.07;;;;;;;8.53;100.00;100165.97;5054760;28;20485;-73
2024/03/01 07:16:36;;;;;;;14.87;7.63;;;;;;;8.55;100.00;100161.09;5054650;28;20480;-72
2024/03/01 07:19:02;;;;;;;17.63;7.40;;;;;;;8.59;100.00;100161.31;5055109;28;20473;-71
2024/03/01 07:21:29;;;;;;;13.93;7.30;;;;;;;8.50;100.00;100160.38;5054703;28;20537;-72
2024/03/01 07:23:56;;;;;;;16.90;6.67;;;;;;;8.50;100.00;100158.50;5054927;28;20502;-72
2024/03/01 07:26:23;;;;;;;16.20;8.50;;;;;;;8.56;100.00;100164.59;5054603;28;20434;-71
2024/03/01 07:28:49;;;;;;;26.80;8.80;;;;;;;8.56;100.00;100167.28;5054870;28;20496;-72
2024/03/01 07:31:16;;;;;;;21.30;8.53;;;;;;;8.58;100.00;100175.88;5054605;28;20466;-71
2024/03/01 07:33:44;;;;;;;20.53;7.83;;;;;;;8.57;100.00;100168.88;5054386;28;20459;-71
2024/03/01 07:36:12;;;;;;;13.63;7.97;;;;;;;8.65;100.00;100175.50;5054403;28;20470;-71
2024/03/01 07:38:39;;;;;;;14.67;7.93;;;;;;;8.68;100.00;100181.13;5053993;28;20533;-70
2024/03/01 07:41:05;;;;;;;20.00;8.17;;;;;;;8.71;100.00;100175.09;5053957;28;20449;-71
2024/03/01 07:43:32;;;;;;;19.60;8.87;;;;;;;8.75;100.00;100184.19;5054433;28;20502;-71
2024/03/01 07:45:59;;;;;;;18.17;8.17;;;;;;;8.78;100.00;100180.13;5054011;28;20942;-71
2024/03/01 07:48:25;;;;;;;27.80;9.90;;;;;;;8.76;100.00;100183.09;5054160;28;20464;-71
2024/03/01 07:50:54;;;;;;;24.73;8.40;;;;;;;8.76;100.00;100188.50;5053836;28;20967;-71
2024/03/01 07:53:20;;;;;;;18.10;8.10;;;;;;;8.76;100.00;100183.09;5053979;28;20466;-69
2024/03/01 07:55:47;;;;;;;20.80;7.20;;;;;;;8.74;100.00;100190.72;5053739;28;20446;-72
2024/03/01 07:58:14;;;;;;;17.70;8.90;;;;;;;8.70;100.00;100184.31;5053981;28;20576;-72
2024/03/01 08:00:40;;;;;;;15.30;7.97;;;;;;;8.76;100.00;100187.69;5053648;28;20956;-71
2024/03/01 08:03:08;;;;;;;25.37;9.67;;;;;;;8.78;100.00;100190.91;5054297;28;20450;-71
2024/03/01 08:05:35;;;;;;;23.87;8.30;;;;;;;8.78;100.00;100185.53;5053857;28;20473;-72
2024/03/01 08:08:04;;;;;;;18.97;7.63;;;;;;;8.83;100.00;100188.13;5053811;28;20438;-72
2024/03/01 08:10:34;;;;;;;26.77;9.57;;;;;;;8.87;100.00;100204.53;5053827;28;20450;-72
2024/03/01 08:13:01;;;;;;;20.87;7.73;;;;;;;8.80;100.00;100192.19;5054065;28;20814;-71
2024/03/01 08:15:30;;;;;;;17.03;6.87;;;;;;;8.80;100.00;100189.50;5054173;28;20520;-71
2024/03/01 08:17:57;;;;;;;27.80;10.83;;;;;;;8.86;100.00;100197.53;5054072;28;20478;-71
2024/03/01 08:20:49;;;;;;;27.63;8.87;;;;;;;8.89;100.00;100196.91;5053704;28;20445;-71
2024/03/01 08:23:17;;;;;;;19.17;7.57;;;;;;;8.91;100.00;100200.13;5053573;28;20896;-70
2024/03/01 08:25:43;;;;;;;28.60;9.30;;;;;;;8.87;100.00;100199.13;5053634;28;20500;-71
2024/03/01 08:28:10;;;;;;;13.80;7.50;;;;;;;8.93;100.00;100200.63;5053861;28;20521;-71
2024/03/01 08:30:44;;;;;;;18.93;8.40;;;;;;;8.98;100.00;100206.72;5053958;28;20465;-71
2024/03/01 08:33:13;;;;;;;17.67;9.50;;;;;;;8.89;100.00;100207.72;5053554;28;20553;-71
2024/03/01 08:35:42;;;;;;;22.10;9.80;;;;;;;8.95;100.00;100212.75;5053466;28;20529;-71
2024/03/01 08:38:42;;;;;;;20.00;7.10;;;;;;;8.99;100.00;100208.34;5053343;28;20486;-68
2024/03/01 08:41:11;;;;;;;22.63;11.13;;;;;;;9.02;100.00;100209.63;5054057;28;20423;-69
2024/03/01 08:43:39;;;;;;;21.47;7.60;;;;;;;9.05;100.00;100211.75;5053286;28;20552;-68
2024/03/01 08:46:06;;;;;;;18.23;8.90;;;;;;;9.16;100.00;100218.53;5053382;28;20941;-68
2024/03/01 08:48:35;;;;;;;16.00;7.60;;;;;;;9.21;100.00;100204.94;5053399;28;20438;-68
2024/03/01 08:51:03;;;;;;;25.17;9.77;;;;;;;9.31;100.00;100210.13;5053285;28;20446;-69
2024/03/01 08:54:08;;;;;;;20.67;8.77;;;;;;;9.34;100.00;100212.25;5053833;28;20518;-73
2024/03/01 08:56:37;;;;;;;18.20;6.70;;;;;;;9.42;100.00;100204.50;5053442;28;20410;-70
2024/03/01 08:59:33;;;;;;;14.10;6.60;;;;;;;9.48;100.00;100206.81;5053190;28;20532;-69
2024/03/01 09:02:00;;;;;;;12.60;7.03;;;;;;;9.64;100.00;100199.16;5053400;28;20460;-69
2024/03/01 09:04:29;;;;;;;18.97;7.23;;;;;;;9.69;100.00;100203.66;5053185;28;20871;-69
2024/03/01 09:07:07;;;;;;;20.60;10.20;;;;;;;9.80;100.00;100199.63;5053211;28;20453;-69
2024/03/01 09:09:34;;;;;;;13.43;7.37;;;;;;;9.91;100.00;100194.78;5053214;28;20484;-69
2024/03/01 09:12:03;;;;;;;19.27;7.60;;;;;;;10.00;100.00;100199.16;5053138;28;20820;-70
2024/03/01 09:14:31;;;;;;;25.43;8.40;;;;;;;10.01;100.00;100195.34;5053317;28;20472;-69
2024/03/01 09:16:59;;;;;;;17.87;9.27;;;;;;;10.04;100.00;100194.72;5053040;28;20842;-69
2024/03/01 09:19:27;;;;;;;27.33;8.63;;;;;;;10.07;100.00;100194.13;5053662;28;20560;-69
2024/03/01 09:21:54;;;;;;;19.80;8.77;;;;;;;10.07;99.31;100199.53;5057199;28;20445;-69
2024/03/01 09:24:22;;;;;;;14.43;7.63;;;;;;;10.12;100.00;100201.31;5056886;28;20489;-69
2024/03/01 09:26:50;;;;;;;20.83;8.20;;;;;;;10.13;99.89;100205.63;5056876;28;20430;-69
2024/03/01 09:29:37;;;;;;;17.67;7.90;;;;;;;10.21;99.73;100209.50;5057248;28;20442;-69
2024/03/01 09:32:05;;;;;;;26.17;9.00;;;;;;;10.19;99.38;100206.31;5056937;28;20454;-69
2024/03/01 09:34:35;;;;;;;23.90;10.07;;;;;;;10.24;98.30;100203.47;5057283;28;20434;-69
2024/03/01 09:37:03;;;;;;;26.20;9.00;;;;;;;10.33;97.79;100207.06;5056757;28;20492;-69
2024/03/01 09:39:30;;;;;;;16.60;7.17;;;;;;;10.32;97.56;100210.91;5056788;28;20481;-69
2024/03/01 09:42:10;;;;;;;31.50;8.10;;;;;;;10.22;97.66;100195.66;5056243;28;20977;-69
2024/03/01 09:44:47;;;;;;;18.40;8.83;;;;;;;10.26;97.82;100191.25;5056632;28;20422;-70
2024/03/01 09:47:23;;;;;;;20.20;8.53;;;;;;;10.22;97.83;100194.84;5056807;28;20822;-69
2024/03/01 09:50:09;;;;;;;20.00;8.37;;;;;;;10.24;98.28;100192.66;5057249;28;20418;-70
2024/03/01 09:52:45;;;;;;;18.10;8.33;;;;;;;10.18;98.38;100189.28;5056429;28;20549;-69
2024/03/01 09:55:19;;;;;;;16.93;8.03;;;;;;;10.18;98.71;100199.28;5056057;28;20957;-70
2024/03/01 09:57:56;;;;;;;17.00;7.27;;;;;;;10.23;97.19;100199.19;5056256;28;20552;-70
2024/03/01 10:00:31;;;;;;;15.50;6.17;;;;;;;10.21;97.21;100194.06;5056202;28;20979;-69
2024/03/01 10:03:11;;;;;;;16.80;9.23;;;;;;;10.18;96.10;100189.28;5056211;28;20454;-70
2024/03/01 10:05:51;;;;;;;18.50;8.03;;;;;;;10.23;96.79;100188.34;5055873;28;20894;-69
2024/03/01 10:08:27;;;;;;;22.27;7.87;;;;;;;10.34;96.95;100189.72;5056378;28;20892;-69
2024/03/01 10:11:13;;;;;;;19.03;7.07;;;;;;;10.46;96.00;100189.97;5056489;28;20418;-69
2024/03/01 10:13:49;;;;;;;20.27;9.50;;;;;;;10.46;95.12;100186.44;5055929;28;20462;-69
2024/03/01 10:16:29;;;;;;;19.77;10.30;;;;;;;10.56;94.48;100188.88;5056023;28;20433;-69
2024/03/01 10:19:05;;;;;;;15.07;7.10;;;;;;;10.60;93.93;100196.09;5055866;28;20472;-69
2024/03/01 10:21:39;;;;;;;18.80;8.70;;;;;;;10.69;93.32;100185.28;5055597;28;20423;-69
2024/03/01 10:24:27;;;;;;;17.80;6.93;;;;;;;10.69;93.30;100193.41;5055977;28;20505;-69
2024/03/01 10:27:06;;;;;;;16.23;8.30;;;;;;;10.79;93.07;100192.34;5055886;28;20847;-69
2024/03/01 10:29:47;;;;;;;12.63;6.77;;;;;;;10.80;93.35;100189.34;5055843;28;20426;-69
2024/03/01 10:32:30;;;;;;;20.40;8.50;;;;;;;10.89;93.05;100185.84;5054776;28;20545;-69
2024/03/01 10:35:03;;;;;;;16.80;7.20;;;;;;;10.94;91.84;100191.16;5056047;28;20767;-69
2024/03/01 10:37:36;;;;;;;16.50;8.50;;;;;;;11.01;91.43;100189.56;5055283;28;20914;-69
2024/03/01 10:40:11;;;;;;;10.10;5.90;;;;;;;11.16;90.96;100188.34;5055559;28;20429;-69
2024/03/01 10:42:43;;;;;;;17.67;8.23;;;;;;;11.26;90.18;100179.91;5055405;28;20457;-69
2024/03/01 10:45:18;;;;;;;15.77;6.57;;;;;;;11.39;89.17;100182.84;5055869;28;20422;-69
2024/03/01 10:47:46;;;;;;;13.80;6.97;;;;;;;11.50;89.02;100176.75;5055354;28;20930;-70
2024/03/01 10:50:21;;;;;;;16.53;7.30;;;;;;;11.60;88.42;100175.69;5055617;28;20473;-69
2024/03/01 10:52:54;;;;;;;17.27;7.40;;;;;;;11.61;85.83;100169.94;5055643;28;20489;-69
2024/03/01 10:55:23;;;;;;;14.77;6.60;;;;;;;11.58;85.63;100175.97;5055600;28;20454;-69
2024/03/01 10:57:58;;;;;;;15.00;6.67;;;;;;;11.58;86.03;100186.03;5055247;28;20482;-69
2024/03/01 11:00:28;;;;;;;14.77;6.37;;;;;;;11.67;85.96;100192.28;5055190;28;20450;-69
2024/03/01 11:03:08;;;;;;;13.80;6.70;;;;;;;11.68;84.11;100193.84;5055341;28;20451;-69
2024/03/01 11:05:40;;;;;;;13.60;6.30;;;;;;;11.64;84.43;100192.91;5055659;28;20513;-69
2024/03/01 11:08:24;;;;;;;20.83;7.60;;;;;;;11.67;85.00;100200.41;5055118;28;20417;-69
2024/03/01 11:10:57;;;;;;;17.10;6.67;;;;;;;11.73;84.85;100190.19;5055371;28;20517;-72
2024/03/01 11:13:27;;;;;;;12.97;6.27;;;;;;;11.74;84.95;100189.09;5055253;28;20466;-71
2024/03/01 11:15:57;;;;;;;16.80;7.80;;;;;;;11.77;84.60;100175.66;5054827;28;20419;-69
2024/03/01 11:18:30;;;;;;;15.70;7.00;;;;;;;11.90;84.49;100175.88;5055208;28;20481;-69
2024/03/01 11:21:09;;;;;;;13.70;6.23;;;;;;;11.98;84.57;100173.16;5054747;28;20477;-68
2024/03/01 11:23:39;;;;;;;14.07;5.77;;;;;;;12.08;83.67;100172.81;5054571;28;20512;-69
2024/03/01 11:26:17;;;;;;;17.93;7.60;;;;;;;12.22;83.44;100183.53;5054575;28;20474;-69